sensor_id;sensor_type;location;lat;lon;timestamp;P1;durP1;ratioP1;P2;durP2;ratioP2
23242;SDS011;11790;49.578;11.214;2023-03-01T00:03:10;38.78;;;18.90;;
23242;SDS011;11790;49.578;11.214;2023-03-01T00:08:10;42.38;;;20.05;;
23242;SDS011;11790;49.578;11.214;2023-03-01T00:13:11;51.95;;;22.77;;
23242;SDS011;11790;49.578;11.214;2023-03-01T00:18:11;47.55;;;20.83;;
23242;SDS011;11790;49.578;11.214;2023-03-01T00:23:11;47.65;;;20.73;;
23242;SDS011;11790;49.578;11.214;2023-03-01T00:28:11;42.88;;;21.08;;
23242;SDS011;11790;49.578;11.214;2023-03-01T00:33:11;43.20;;;20.70;;
23242;SDS011;11790;49.578;11.214;2023-03-01T00:38:11;42.38;;;20.45;;
23242;SDS011;11790;49.578;11.214;2023-03-01T00:43:11;44.08;;;20.90;;
23242;SDS011;11790;49.578;11.214;2023-03-01T00:48:12;46.70;;;21.27;;
23242;SDS011;11790;49.578;11.214;2023-03-01T00:53:12;47.40;;;20.95;;
23242;SDS011;11790;49.578;11.214;2023-03-01T00:58:12;44.00;;;20.55;;
23242;SDS011;11790;49.578;11.214;2023-03-01T01:03:12;41.88;;;19.17;;
23242;SDS011;11790;49.578;11.214;2023-03-01T01:08:12;45.72;;;20.80;;
23242;SDS011;11790;49.578;11.214;2023-03-01T01:13:12;42.60;;;20.13;;
23242;SDS011;11790;49.578;11.214;2023-03-01T01:18:13;45.88;;;20.58;;
23242;SDS011;11790;49.578;11.214;2023-03-01T01:23:13;40.78;;;19.92;;
23242;SDS011;11790;49.578;11.214;2023-03-01T01:28:13;41.78;;;19.73;;
23242;SDS011;11790;49.578;11.214;2023-03-01T01:33:13;43.00;;;20.63;;
23242;SDS011;11790;49.578;11.214;2023-03-01T01:38:13;44.85;;;19.98;;
23242;SDS011;11790;49.578;11.214;2023-03-01T01:43:18;42.78;;;21.40;;
23242;SDS011;11790;49.578;11.214;2023-03-01T01:48:20;42.97;;;20.10;;
23242;SDS011;11790;49.578;11.214;2023-03-01T01:53:21;42.05;;;20.15;;
23242;SDS011;11790;49.578;11.214;2023-03-01T01:58:21;44.88;;;20.77;;
23242;SDS011;11790;49.578;11.214;2023-03-01T02:03:25;44.22;;;20.17;;
23242;SDS011;11790;49.578;11.214;2023-03-01T02:08:29;50.42;;;20.30;;
23242;SDS011;11790;49.578;11.214;2023-03-01T02:13:33;42.13;;;19.77;;
23242;SDS011;11790;49.578;11.214;2023-03-01T02:18:34;41.42;;;18.67;;
23242;SDS011;11790;49.578;11.214;2023-03-01T02:23:34;40.63;;;19.85;;
23242;SDS011;11790;49.578;11.214;2023-03-01T02:28:36;40.58;;;19.35;;
23242;SDS011;11790;49.578;11.214;2023-03-01T02:33:37;43.33;;;18.73;;
23242;SDS011;11790;49.578;11.214;2023-03-01T02:38:38;43.55;;;19.48;;
23242;SDS011;11790;49.578;11.214;2023-03-01T02:43:38;43.42;;;21.05;;
23242;SDS011;11790;49.578;11.214;2023-03-01T02:48:43;47.55;;;21.15;;
23242;SDS011;11790;49.578;11.214;2023-03-01T02:58:43;39.47;;;18.48;;
23242;SDS011;11790;49.578;11.214;2023-03-01T03:03:51;39.13;;;19.63;;
23242;SDS011;11790;49.578;11.214;2023-03-01T03:08:51;39.85;;;19.08;;
23242;SDS011;11790;49.578;11.214;2023-03-01T03:13:51;40.05;;;18.13;;
23242;SDS011;11790;49.578;11.214;2023-03-01T03:18:52;41.65;;;19.67;;
23242;SDS011;11790;49.578;11.214;2023-03-01T03:23:52;38.20;;;19.35;;
23242;SDS011;11790;49.578;11.214;2023-03-01T03:28:52;44.03;;;19.92;;
23242;SDS011;11790;49.578;11.214;2023-03-01T03:33:52;38.90;;;17.63;;
23242;SDS011;11790;49.578;11.214;2023-03-01T03:38:52;37.80;;;18.88;;
23242;SDS011;11790;49.578;11.214;2023-03-01T03:43:53;42.05;;;19.08;;
23242;SDS011;11790;49.578;11.214;2023-03-01T03:48:53;42.13;;;18.27;;
23242;SDS011;11790;49.578;11.214;2023-03-01T03:53:53;37.42;;;17.95;;
23242;SDS011;11790;49.578;11.214;2023-03-01T03:58:53;40.75;;;19.42;;
23242;SDS011;11790;49.578;11.214;2023-03-01T04:03:53;41.25;;;19.40;;
23242;SDS011;11790;49.578;11.214;2023-03-01T04:08:54;43.47;;;19.88;;
23242;SDS011;11790;49.578;11.214;2023-03-01T04:13:58;44.80;;;20.38;;
23242;SDS011;11790;49.578;11.214;2023-03-01T04:18:58;40.13;;;19.33;;
23242;SDS011;11790;49.578;11.214;2023-03-01T04:24:00;42.30;;;19.88;;
23242;SDS011;11790;49.578;11.214;2023-03-01T04:29:02;45.60;;;19.95;;
23242;SDS011;11790;49.578;11.214;2023-03-01T04:34:02;49.75;;;21.52;;
23242;SDS011;11790;49.578;11.214;2023-03-01T04:39:02;47.17;;;20.45;;
23242;SDS011;11790;49.578;11.214;2023-03-01T04:44:11;43.13;;;20.35;;
23242;SDS011;11790;49.578;11.214;2023-03-01T04:49:12;40.78;;;18.50;;
23242;SDS011;11790;49.578;11.214;2023-03-01T04:54:12;44.83;;;20.60;;
23242;SDS011;11790;49.578;11.214;2023-03-01T04:59:13;43.95;;;19.70;;
23242;SDS011;11790;49.578;11.214;2023-03-01T05:04:13;43.17;;;20.25;;
23242;SDS011;11790;49.578;11.214;2023-03-01T05:09:13;43.58;;;20.20;;
23242;SDS011;11790;49.578;11.214;2023-03-01T05:14:13;46.25;;;20.25;;
23242;SDS011;11790;49.578;11.214;2023-03-01T05:19:13;47.50;;;20.90;;
23242;SDS011;11790;49.578;11.214;2023-03-01T05:24:15;42.70;;;20.02;;
23242;SDS011;11790;49.578;11.214;2023-03-01T05:29:15;40.95;;;19.85;;
23242;SDS011;11790;49.578;11.214;2023-03-01T05:34:15;46.95;;;21.00;;
23242;SDS011;11790;49.578;11.214;2023-03-01T05:39:15;47.72;;;21.63;;
23242;SDS011;11790;49.578;11.214;2023-03-01T05:44:15;44.95;;;20.90;;
23242;SDS011;11790;49.578;11.214;2023-03-01T05:49:16;47.08;;;20.05;;
23242;SDS011;11790;49.578;11.214;2023-03-01T05:54:16;41.85;;;19.13;;
23242;SDS011;11790;49.578;11.214;2023-03-01T05:59:16;47.20;;;20.80;;
23242;SDS011;11790;49.578;11.214;2023-03-01T06:04:16;45.22;;;20.90;;
23242;SDS011;11790;49.578;11.214;2023-03-01T06:09:16;53.30;;;21.38;;
23242;SDS011;11790;49.578;11.214;2023-03-01T06:14:17;46.25;;;21.42;;
23242;SDS011;11790;49.578;11.214;2023-03-01T06:19:17;46.15;;;21.52;;
23242;SDS011;11790;49.578;11.214;2023-03-01T06:24:17;43.72;;;21.63;;
23242;SDS011;11790;49.578;11.214;2023-03-01T06:29:17;45.88;;;21.35;;
23242;SDS011;11790;49.578;11.214;2023-03-01T06:34:18;47.17;;;20.60;;
23242;SDS011;11790;49.578;11.214;2023-03-01T06:39:18;50.00;;;21.00;;
23242;SDS011;11790;49.578;11.214;2023-03-01T06:44:18;47.58;;;23.13;;
23242;SDS011;11790;49.578;11.214;2023-03-01T06:49:18;56.13;;;22.15;;
23242;SDS011;11790;49.578;11.214;2023-03-01T06:54:19;48.67;;;22.80;;
23242;SDS011;11790;49.578;11.214;2023-03-01T06:59:22;45.85;;;20.85;;
23242;SDS011;11790;49.578;11.214;2023-03-01T07:04:22;50.90;;;22.90;;
23242;SDS011;11790;49.578;11.214;2023-03-01T07:09:22;53.00;;;22.88;;
23242;SDS011;11790;49.578;11.214;2023-03-01T07:14:23;48.60;;;22.90;;
23242;SDS011;11790;49.578;11.214;2023-03-01T07:19:26;48.05;;;21.45;;
23242;SDS011;11790;49.578;11.214;2023-03-01T07:24:26;41.60;;;20.98;;
23242;SDS011;11790;49.578;11.214;2023-03-01T07:29:27;39.85;;;20.35;;
23242;SDS011;11790;49.578;11.214;2023-03-01T07:34:28;37.10;;;18.67;;
23242;SDS011;11790;49.578;11.214;2023-03-01T07:39:29;40.78;;;17.75;;
23242;SDS011;11790;49.578;11.214;2023-03-01T07:44:29;36.80;;;17.27;;
23242;SDS011;11790;49.578;11.214;2023-03-01T07:49:29;30.90;;;16.65;;
23242;SDS011;11790;49.578;11.214;2023-03-01T07:54:29;33.00;;;17.52;;
23242;SDS011;11790;49.578;11.214;2023-03-01T07:59:29;31.48;;;16.48;;
23242;SDS011;11790;49.578;11.214;2023-03-01T08:04:29;30.45;;;16.30;;
23242;SDS011;11790;49.578;11.214;2023-03-01T08:09:30;31.85;;;17.25;;
23242;SDS011;11790;49.578;11.214;2023-03-01T08:14:31;28.00;;;16.55;;
23242;SDS011;11790;49.578;11.214;2023-03-01T08:19:31;32.28;;;17.27;;
23242;SDS011;11790;49.578;11.214;2023-03-01T08:24:31;27.13;;;16.63;;
23242;SDS011;11790;49.578;11.214;2023-03-01T08:29:31;27.47;;;15.27;;
23242;SDS011;11790;49.578;11.214;2023-03-01T08:34:32;26.00;;;15.68;;
23242;SDS011;11790;49.578;11.214;2023-03-01T08:39:33;24.50;;;15.30;;
23242;SDS011;11790;49.578;11.214;2023-03-01T08:44:33;25.98;;;15.80;;
23242;SDS011;11790;49.578;11.214;2023-03-01T08:49:35;24.80;;;14.77;;
23242;SDS011;11790;49.578;11.214;2023-03-01T08:54:35;29.83;;;14.48;;
23242;SDS011;11790;49.578;11.214;2023-03-01T08:59:35;28.27;;;16.10;;
23242;SDS011;11790;49.578;11.214;2023-03-01T09:04:37;25.70;;;15.38;;
23242;SDS011;11790;49.578;11.214;2023-03-01T09:09:37;25.05;;;15.20;;
23242;SDS011;11790;49.578;11.214;2023-03-01T09:14:37;27.50;;;14.73;;
23242;SDS011;11790;49.578;11.214;2023-03-01T09:19:38;21.98;;;13.80;;
23242;SDS011;11790;49.578;11.214;2023-03-01T09:24:38;22.63;;;13.82;;
23242;SDS011;11790;49.578;11.214;2023-03-01T09:29:40;20.30;;;13.77;;
23242;SDS011;11790;49.578;11.214;2023-03-01T09:34:40;21.35;;;13.98;;
23242;SDS011;11790;49.578;11.214;2023-03-01T09:39:59;22.98;;;13.80;;
23242;SDS011;11790;49.578;11.214;2023-03-01T09:45:33;20.02;;;13.20;;
23242;SDS011;11790;49.578;11.214;2023-03-01T09:50:28;25.10;;;14.13;;
23242;SDS011;11790;49.578;11.214;2023-03-01T09:55:54;20.13;;;13.65;;
23242;SDS011;11790;49.578;11.214;2023-03-01T10:00:52;23.10;;;13.90;;
23242;SDS011;11790;49.578;11.214;2023-03-01T10:10:56;20.73;;;13.23;;
23242;SDS011;11790;49.578;11.214;2023-03-01T10:15:59;22.20;;;13.55;;
23242;SDS011;11790;49.578;11.214;2023-03-01T10:21:22;22.25;;;13.57;;
23242;SDS011;11790;49.578;11.214;2023-03-01T10:26:32;22.15;;;12.55;;
23242;SDS011;11790;49.578;11.214;2023-03-01T10:36:43;20.15;;;13.15;;
23242;SDS011;11790;49.578;11.214;2023-03-01T10:46:59;22.02;;;12.93;;
23242;SDS011;11790;49.578;11.214;2023-03-01T10:52:11;19.10;;;12.77;;
23242;SDS011;11790;49.578;11.214;2023-03-01T10:57:24;21.55;;;12.60;;
23242;SDS011;11790;49.578;11.214;2023-03-01T11:02:30;19.60;;;12.55;;
23242;SDS011;11790;49.578;11.214;2023-03-01T11:07:30;17.02;;;11.50;;
23242;SDS011;11790;49.578;11.214;2023-03-01T11:12:30;18.30;;;11.68;;
23242;SDS011;11790;49.578;11.214;2023-03-01T11:17:32;19.77;;;11.68;;
23242;SDS011;11790;49.578;11.214;2023-03-01T11:27:40;16.75;;;10.63;;
23242;SDS011;11790;49.578;11.214;2023-03-01T11:32:44;18.10;;;11.32;;
23242;SDS011;11790;49.578;11.214;2023-03-01T11:58:26;16.63;;;10.68;;
23242;SDS011;11790;49.578;11.214;2023-03-01T12:08:42;16.05;;;10.73;;
23242;SDS011;11790;49.578;11.214;2023-03-01T12:23:57;21.98;;;10.82;;
23242;SDS011;11790;49.578;11.214;2023-03-01T12:39:28;17.23;;;11.10;;
23242;SDS011;11790;49.578;11.214;2023-03-01T12:49:37;14.90;;;10.50;;
23242;SDS011;11790;49.578;11.214;2023-03-01T12:54:39;17.20;;;11.43;;
23242;SDS011;11790;49.578;11.214;2023-03-01T13:00:24;16.77;;;11.63;;
23242;SDS011;11790;49.578;11.214;2023-03-01T13:10:36;18.30;;;11.10;;
23242;SDS011;11790;49.578;11.214;2023-03-01T13:15:40;16.48;;;10.57;;
23242;SDS011;11790;49.578;11.214;2023-03-01T13:31:06;13.63;;;10.70;;
23242;SDS011;11790;49.578;11.214;2023-03-01T13:36:07;16.08;;;10.57;;
23242;SDS011;11790;49.578;11.214;2023-03-01T13:41:08;16.90;;;11.05;;
23242;SDS011;11790;49.578;11.214;2023-03-01T13:46:19;17.08;;;10.85;;
23242;SDS011;11790;49.578;11.214;2023-03-01T13:51:21;16.00;;;10.85;;
23242;SDS011;11790;49.578;11.214;2023-03-01T13:56:27;16.35;;;10.65;;
23242;SDS011;11790;49.578;11.214;2023-03-01T14:01:32;13.53;;;10.37;;
23242;SDS011;11790;49.578;11.214;2023-03-01T14:06:33;17.50;;;9.80;;
23242;SDS011;11790;49.578;11.214;2023-03-01T14:16:54;15.68;;;10.10;;
23242;SDS011;11790;49.578;11.214;2023-03-01T14:22:02;15.30;;;10.75;;
23242;SDS011;11790;49.578;11.214;2023-03-01T14:27:04;16.70;;;10.60;;
23242;SDS011;11790;49.578;11.214;2023-03-01T14:37:18;16.23;;;9.98;;
23242;SDS011;11790;49.578;11.214;2023-03-01T14:42:19;13.57;;;9.43;;
23242;SDS011;11790;49.578;11.214;2023-03-01T14:47:24;14.02;;;9.07;;
23242;SDS011;11790;49.578;11.214;2023-03-01T14:52:30;14.47;;;10.13;;
23242;SDS011;11790;49.578;11.214;2023-03-01T14:57:31;14.30;;;9.40;;
23242;SDS011;11790;49.578;11.214;2023-03-01T15:02:32;14.73;;;8.95;;
23242;SDS011;11790;49.578;11.214;2023-03-01T15:07:37;13.88;;;9.27;;
23242;SDS011;11790;49.578;11.214;2023-03-01T15:12:39;12.38;;;9.07;;
23242;SDS011;11790;49.578;11.214;2023-03-01T15:17:39;14.25;;;9.23;;
23242;SDS011;11790;49.578;11.214;2023-03-01T15:22:42;13.95;;;9.30;;
23242;SDS011;11790;49.578;11.214;2023-03-01T15:27:49;12.68;;;8.65;;
23242;SDS011;11790;49.578;11.214;2023-03-01T15:33:15;14.02;;;8.77;;
23242;SDS011;11790;49.578;11.214;2023-03-01T15:43:38;15.25;;;9.85;;
23242;SDS011;11790;49.578;11.214;2023-03-01T15:48:39;13.93;;;9.10;;
23242;SDS011;11790;49.578;11.214;2023-03-01T15:53:45;15.88;;;10.50;;
23242;SDS011;11790;49.578;11.214;2023-03-01T15:58:47;16.73;;;10.55;;
23242;SDS011;11790;49.578;11.214;2023-03-01T16:03:47;18.35;;;11.65;;
23242;SDS011;11790;49.578;11.214;2023-03-01T16:08:47;18.10;;;11.23;;
23242;SDS011;11790;49.578;11.214;2023-03-01T16:13:47;19.75;;;12.15;;
23242;SDS011;11790;49.578;11.214;2023-03-01T16:18:47;19.13;;;10.43;;
23242;SDS011;11790;49.578;11.214;2023-03-01T16:23:48;23.20;;;12.13;;
23242;SDS011;11790;49.578;11.214;2023-03-01T16:28:48;21.95;;;12.30;;
23242;SDS011;11790;49.578;11.214;2023-03-01T16:33:49;20.38;;;11.80;;
23242;SDS011;11790;49.578;11.214;2023-03-01T16:38:50;20.75;;;11.82;;
23242;SDS011;11790;49.578;11.214;2023-03-01T16:43:50;23.77;;;12.82;;
23242;SDS011;11790;49.578;11.214;2023-03-01T16:48:51;25.42;;;13.70;;
23242;SDS011;11790;49.578;11.214;2023-03-01T16:53:51;26.75;;;13.90;;
23242;SDS011;11790;49.578;11.214;2023-03-01T16:58:51;26.85;;;14.55;;
23242;SDS011;11790;49.578;11.214;2023-03-01T17:03:51;26.73;;;14.27;;
23242;SDS011;11790;49.578;11.214;2023-03-01T17:08:52;31.77;;;15.48;;
23242;SDS011;11790;49.578;11.214;2023-03-01T17:13:52;30.80;;;16.05;;
23242;SDS011;11790;49.578;11.214;2023-03-01T17:18:52;36.25;;;17.20;;
23242;SDS011;11790;49.578;11.214;2023-03-01T17:23:54;32.80;;;16.25;;
23242;SDS011;11790;49.578;11.214;2023-03-01T17:28:55;33.90;;;18.70;;
23242;SDS011;11790;49.578;11.214;2023-03-01T17:33:56;35.25;;;18.40;;
23242;SDS011;11790;49.578;11.214;2023-03-01T17:38:56;35.42;;;17.92;;
23242;SDS011;11790;49.578;11.214;2023-03-01T17:43:56;33.65;;;17.45;;
23242;SDS011;11790;49.578;11.214;2023-03-01T17:48:57;41.72;;;19.65;;
23242;SDS011;11790;49.578;11.214;2023-03-01T17:53:57;37.63;;;19.02;;
23242;SDS011;11790;49.578;11.214;2023-03-01T17:58:57;35.75;;;19.55;;
23242;SDS011;11790;49.578;11.214;2023-03-01T18:03:57;38.28;;;19.25;;
23242;SDS011;11790;49.578;11.214;2023-03-01T18:08:57;38.05;;;20.33;;
23242;SDS011;11790;49.578;11.214;2023-03-01T18:13:58;43.78;;;20.58;;
23242;SDS011;11790;49.578;11.214;2023-03-01T18:18:58;45.28;;;22.98;;
23242;SDS011;11790;49.578;11.214;2023-03-01T18:23:58;44.38;;;22.33;;
23242;SDS011;11790;49.578;11.214;2023-03-01T18:28:59;40.75;;;21.30;;
23242;SDS011;11790;49.578;11.214;2023-03-01T18:34:00;39.67;;;21.67;;
23242;SDS011;11790;49.578;11.214;2023-03-01T18:39:01;41.42;;;21.05;;
23242;SDS011;11790;49.578;11.214;2023-03-01T18:44:03;44.40;;;21.70;;
23242;SDS011;11790;49.578;11.214;2023-03-01T18:49:04;44.25;;;22.10;;
23242;SDS011;11790;49.578;11.214;2023-03-01T18:54:04;45.17;;;22.75;;
23242;SDS011;11790;49.578;11.214;2023-03-01T18:59:04;40.80;;;21.00;;
23242;SDS011;11790;49.578;11.214;2023-03-01T19:04:04;46.88;;;22.15;;
23242;SDS011;11790;49.578;11.214;2023-03-01T19:09:06;46.50;;;22.90;;
23242;SDS011;11790;49.578;11.214;2023-03-01T19:14:06;45.67;;;23.15;;
23242;SDS011;11790;49.578;11.214;2023-03-01T19:19:07;44.75;;;22.10;;
23242;SDS011;11790;49.578;11.214;2023-03-01T19:24:08;41.75;;;21.45;;
23242;SDS011;11790;49.578;11.214;2023-03-01T19:29:09;43.13;;;21.20;;
23242;SDS011;11790;49.578;11.214;2023-03-01T19:34:10;42.38;;;22.33;;
23242;SDS011;11790;49.578;11.214;2023-03-01T19:39:11;42.25;;;21.27;;
23242;SDS011;11790;49.578;11.214;2023-03-01T19:44:12;46.25;;;22.17;;
23242;SDS011;11790;49.578;11.214;2023-03-01T19:49:12;42.10;;;21.48;;
23242;SDS011;11790;49.578;11.214;2023-03-01T19:54:12;46.40;;;21.42;;
23242;SDS011;11790;49.578;11.214;2023-03-01T19:59:14;42.47;;;21.80;;
23242;SDS011;11790;49.578;11.214;2023-03-01T20:04:14;49.25;;;23.20;;
23242;SDS011;11790;49.578;11.214;2023-03-01T20:09:15;41.35;;;21.80;;
23242;SDS011;11790;49.578;11.214;2023-03-01T20:14:15;47.85;;;22.98;;
23242;SDS011;11790;49.578;11.214;2023-03-01T20:19:15;52.95;;;23.88;;
23242;SDS011;11790;49.578;11.214;2023-03-01T20:24:15;47.75;;;22.83;;
23242;SDS011;11790;49.578;11.214;2023-03-01T20:29:16;47.92;;;23.77;;
23242;SDS011;11790;49.578;11.214;2023-03-01T20:34:16;42.75;;;22.00;;
23242;SDS011;11790;49.578;11.214;2023-03-01T20:39:16;46.03;;;22.67;;
23242;SDS011;11790;49.578;11.214;2023-03-01T20:44:16;43.97;;;22.25;;
23242;SDS011;11790;49.578;11.214;2023-03-01T20:49:16;45.33;;;22.25;;
23242;SDS011;11790;49.578;11.214;2023-03-01T20:54:17;46.10;;;22.02;;
23242;SDS011;11790;49.578;11.214;2023-03-01T20:59:17;47.75;;;22.33;;
23242;SDS011;11790;49.578;11.214;2023-03-01T21:04:17;46.42;;;22.48;;
23242;SDS011;11790;49.578;11.214;2023-03-01T21:09:18;46.45;;;23.50;;
23242;SDS011;11790;49.578;11.214;2023-03-01T21:14:18;50.55;;;23.85;;
23242;SDS011;11790;49.578;11.214;2023-03-01T21:19:18;50.03;;;23.98;;
23242;SDS011;11790;49.578;11.214;2023-03-01T21:24:20;51.00;;;23.77;;
23242;SDS011;11790;49.578;11.214;2023-03-01T21:29:20;53.40;;;23.90;;
23242;SDS011;11790;49.578;11.214;2023-03-01T21:34:20;53.17;;;23.80;;
23242;SDS011;11790;49.578;11.214;2023-03-01T21:39:21;52.33;;;24.50;;
23242;SDS011;11790;49.578;11.214;2023-03-01T21:44:22;53.15;;;24.77;;
23242;SDS011;11790;49.578;11.214;2023-03-01T21:49:22;52.38;;;24.30;;
23242;SDS011;11790;49.578;11.214;2023-03-01T21:54:22;49.10;;;23.07;;
23242;SDS011;11790;49.578;11.214;2023-03-01T21:59:22;45.90;;;22.67;;
23242;SDS011;11790;49.578;11.214;2023-03-01T22:04:23;48.17;;;23.13;;
23242;SDS011;11790;49.578;11.214;2023-03-01T22:09:24;50.85;;;22.92;;
23242;SDS011;11790;49.578;11.214;2023-03-01T22:14:24;49.05;;;23.75;;
23242;SDS011;11790;49.578;11.214;2023-03-01T22:19:25;53.15;;;24.08;;
23242;SDS011;11790;49.578;11.214;2023-03-01T22:24:27;52.60;;;23.58;;
23242;SDS011;11790;49.578;11.214;2023-03-01T22:29:27;49.35;;;24.13;;
23242;SDS011;11790;49.578;11.214;2023-03-01T22:34:28;49.67;;;23.83;;
23242;SDS011;11790;49.578;11.214;2023-03-01T22:39:29;49.35;;;23.08;;
23242;SDS011;11790;49.578;11.214;2023-03-01T22:44:29;47.90;;;22.90;;
23242;SDS011;11790;49.578;11.214;2023-03-01T22:49:29;48.03;;;22.40;;
23242;SDS011;11790;49.578;11.214;2023-03-01T22:54:30;47.83;;;22.45;;
23242;SDS011;11790;49.578;11.214;2023-03-01T22:59:30;47.92;;;21.90;;
23242;SDS011;11790;49.578;11.214;2023-03-01T23:04:30;47.05;;;22.33;;
23242;SDS011;11790;49.578;11.214;2023-03-01T23:09:32;53.80;;;23.00;;
23242;SDS011;11790;49.578;11.214;2023-03-01T23:14:32;44.17;;;21.55;;
23242;SDS011;11790;49.578;11.214;2023-03-01T23:19:32;48.92;;;21.95;;
23242;SDS011;11790;49.578;11.214;2023-03-01T23:24:32;42.35;;;20.38;;
23242;SDS011;11790;49.578;11.214;2023-03-01T23:29:33;45.47;;;23.40;;
23242;SDS011;11790;49.578;11.214;2023-03-01T23:34:33;44.85;;;21.10;;
23242;SDS011;11790;49.578;11.214;2023-03-01T23:39:33;45.80;;;20.50;;
23242;SDS011;11790;49.578;11.214;2023-03-01T23:44:34;44.40;;;20.40;;
23242;SDS011;11790;49.578;11.214;2023-03-01T23:49:34;42.60;;;20.35;;
23242;SDS011;11790;49.578;11.214;2023-03-01T23:54:34;44.97;;;19.58;;
23242;SDS011;11790;49.578;11.214;2023-03-01T23:59:34;43.53;;;20.48;;
